Time;durP1;ratioP1;P1;durP2;ratioP2;P2;SDS_P1;SDS_P2;PMS_P1;PMS_P2;Temp;Humidity;BMP_temperature;BMP_pressure;BME280_temperature;BME280_humidity;BME280_pressure;Samples;Min_cycle;Max_cycle;Signal;HPM_P1;HPM_P2
2021/09/12 00:01:00;;;;;;;10.63;8.80;;;;;;;;;;5079605;28;20039;-81
2021/09/12 00:03:26;;;;;;;11.65;9.18;;;;;;;;;;5080508;28;20040;-81
2021/09/12 00:05:52;;;;;;;17.20;9.23;;;;;;;;;;5077602;28;20128;-81
2021/09/12 00:08:18;;;;;;;9.93;7.97;;;;;;;;;;5059604;28;20450;-81
2021/09/12 00:10:44;;;;;;;10.73;7.75;;;;;;;;;;5077480;28;20078;-81
2021/09/12 00:13:10;;;;;;;11.05;7.50;;;;;;;;;;5077606;28;20021;-81
2021/09/12 00:15:36;;;;;;;9.13;7.22;;;;;;;;;;5077538;28;20051;-81
2021/09/12 00:18:02;;;;;;;8.70;7.35;;;;;;;;;;5078035;28;20035;-81
2021/09/12 00:20:28;;;;;;;12.27;7.28;;;;;;;;;;5096598;28;20028;-81
2021/09/12 00:22:54;;;;;;;9.38;7.22;;;;;;;;;;5097927;28;20024;-81
2021/09/12 00:25:20;;;;;;;9.38;7.13;;;;;;;;;;5097591;28;20038;-81
2021/09/12 00:27:46;;;;;;;10.70;7.22;;;;;;;;;;5097625;28;20032;-81
2021/09/12 00:30:13;;;;;;;9.73;6.85;;;;;;;;;;5097654;28;20683;-81
2021/09/12 00:32:39;;;;;;;11.95;6.88;;;;;;;;;;5098522;28;20024;-81
2021/09/12 00:35:05;;;;;;;9.40;7.30;;;;;;;;;;5083108;28;20028;-81
2021/09/12 00:37:31;;;;;;;9.25;7.03;;;;;;;;;;5101540;28;20028;-81
2021/09/12 00:39:57;;;;;;;9.38;7.45;;;;;;;;;;5102057;28;20077;-81
2021/09/12 00:42:23;;;;;;;10.35;7.22;;;;;;;;;;5107927;28;20103;-81
2021/09/12 00:44:50;;;;;;;14.20;8.13;;;;;;;;;;5107030;28;20028;-81
2021/09/12 00:47:16;;;;;;;8.52;7.18;;;;;;;;;;5101951;28;20035;-81
2021/09/12 00:49:42;;;;;;;10.35;7.30;;;;;;;;;;5101120;28;20043;-81
2021/09/12 00:52:09;;;;;;;9.15;7.00;;;;;;;;;;5100198;28;20024;-80
2021/09/12 00:54:36;;;;;;;9.10;6.93;;;;;;;;;;5101762;28;20081;-80
2021/09/12 00:57:05;;;;;;;8.05;7.18;;;;;;;;;;5102442;28;20409;-81
2021/09/12 00:59:31;;;;;;;7.60;6.47;;;;;;;;;;5101161;28;20028;-81
2021/09/12 01:01:58;;;;;;;10.70;7.10;;;;;;;;;;5101374;28;20069;-81
2021/09/12 01:04:24;;;;;;;11.23;7.28;;;;;;;;;;5102104;28;20032;-81
2021/09/12 01:06:50;;;;;;;9.52;6.32;;;;;;;;;;5101427;28;20058;-81
2021/09/12 01:09:17;;;;;;;9.40;6.00;;;;;;;;;;5098739;28;20024;-81
2021/09/12 01:11:43;;;;;;;9.63;6.30;;;;;;;;;;5081892;28;20050;-81
2021/09/12 01:14:10;;;;;;;7.50;6.10;;;;;;;;;;5081807;28;20043;-80
2021/09/12 01:16:36;;;;;;;7.75;6.70;;;;;;;;;;5081997;28;20028;-81
2021/09/12 01:19:02;;;;;;;9.90;6.53;;;;;;;;;;5080725;28;20465;-81
2021/09/12 01:21:28;;;;;;;10.48;7.18;;;;;;;;;;5081111;28;20027;-81
2021/09/12 01:23:54;;;;;;;11.52;7.03;;;;;;;;;;5081534;28;20035;-81
2021/09/12 01:26:25;;;;;;;13.07;7.55;;;;;;;;;;5088536;28;20060;-80
2021/09/12 01:28:51;;;;;;;10.70;7.53;;;;;;;;;;5119415;28;20550;-77
2021/09/12 01:31:27;;;;;;;10.02;7.63;;;;;;;;;;5119726;28;20036;-78
2021/09/12 01:33:54;;;;;;;10.48;7.90;;;;;;;;;;5119979;28;20081;-81
2021/09/12 01:36:20;;;;;;;12.38;8.48;;;;;;;;;;5107088;28;20470;-80
2021/09/12 01:38:46;;;;;;;12.43;8.50;;;;;;;;;;5095370;28;20032;-80
2021/09/12 01:41:12;;;;;;;12.38;9.80;;;;;;;;;;5094236;28;20472;-78
2021/09/12 01:43:47;;;;;;;13.82;9.25;;;;;;;;;;5083917;28;20484;-79
2021/09/12 01:46:13;;;;;;;13.23;8.82;;;;;;;;;;5074216;28;20031;-78
2021/09/12 01:48:39;;;;;;;11.50;7.65;;;;;;;;;;5074052;28;20036;-78
2021/09/12 01:51:05;;;;;;;10.60;8.77;;;;;;;;;;5073403;28;20073;-78
2021/09/12 01:53:32;;;;;;;7.47;6.55;;;;;;;;;;5074160;28;20111;-78
2021/09/12 01:55:58;;;;;;;8.32;5.78;;;;;;;;;;5075090;28;20102;-78
2021/09/12 01:58:25;;;;;;;8.60;6.60;;;;;;;;;;5083165;28;20028;-79
2021/09/12 02:00:51;;;;;;;6.95;6.10;;;;;;;;;;5079828;28;20560;-77
2021/09/12 02:03:17;;;;;;;7.63;5.88;;;;;;;;;;5075003;28;20107;-78
2021/09/12 02:05:43;;;;;;;9.13;6.30;;;;;;;;;;5075620;28;20024;-78
2021/09/12 02:08:09;;;;;;;8.93;6.18;;;;;;;;;;5094024;28;20099;-78
2021/09/12 02:10:35;;;;;;;9.48;6.53;;;;;;;;;;5093689;28;20458;-78
2021/09/12 02:13:01;;;;;;;8.68;6.10;;;;;;;;;;5081241;28;20031;-77
2021/09/12 02:15:27;;;;;;;7.97;6.43;;;;;;;;;;5076744;28;20388;-78
2021/09/12 02:17:53;;;;;;;10.95;7.63;;;;;;;;;;5093298;28;20089;-78
2021/09/12 02:20:19;;;;;;;9.18;7.05;;;;;;;;;;5081909;28;20111;-79
2021/09/12 02:22:45;;;;;;;11.90;7.80;;;;;;;;;;5073740;28;20116;-78
2021/09/12 02:25:11;;;;;;;9.52;7.43;;;;;;;;;;5073604;28;20055;-78
2021/09/12 02:27:38;;;;;;;12.55;7.97;;;;;;;;;;5073562;28;20033;-78
2021/09/12 02:30:04;;;;;;;16.50;7.32;;;;;;;;;;5073226;28;20580;-79
2021/09/12 02:32:30;;;;;;;10.27;7.80;;;;;;;;;;5073383;28;20043;-78
2021/09/12 02:34:56;;;;;;;11.15;7.57;;;;;;;;;;5074097;28;20040;-78
2021/09/12 02:37:22;;;;;;;12.18;8.20;;;;;;;;;;5073083;28;20073;-78
2021/09/12 02:39:48;;;;;;;9.80;7.30;;;;;;;;;;5072564;28;20108;-78
2021/09/12 02:42:14;;;;;;;9.80;7.65;;;;;;;;;;5085179;28;20028;-78
2021/09/12 02:44:40;;;;;;;11.70;7.97;;;;;;;;;;5093402;28;20036;-78
2021/09/12 02:47:06;;;;;;;11.85;8.23;;;;;;;;;;5093198;28;20051;-78
2021/09/12 02:49:32;;;;;;;12.77;7.93;;;;;;;;;;5092616;28;20056;-78
2021/09/12 02:51:58;;;;;;;12.88;8.05;;;;;;;;;;5092955;28;20095;-77
2021/09/12 02:54:24;;;;;;;11.90;8.82;;;;;;;;;;5093118;28;20173;-78
2021/09/12 02:56:50;;;;;;;10.82;8.30;;;;;;;;;;5092681;28;20016;-78
2021/09/12 02:59:17;;;;;;;12.88;8.80;;;;;;;;;;5092386;28;20480;-79
2021/09/12 03:01:43;;;;;;;11.18;8.05;;;;;;;;;;5093069;28;20042;-78
2021/09/12 03:04:09;;;;;;;10.80;7.45;;;;;;;;;;5092732;28;20485;-78
2021/09/12 03:06:35;;;;;;;10.85;7.38;;;;;;;;;;5092580;28;20439;-78
2021/09/12 03:09:01;;;;;;;10.55;7.10;;;;;;;;;;5077617;28;20029;-78
2021/09/12 03:11:27;;;;;;;8.60;6.68;;;;;;;;;;5072602;28;20500;-78
2021/09/12 03:13:53;;;;;;;9.50;6.63;;;;;;;;;;5072488;28;20031;-78
2021/09/12 03:16:20;;;;;;;9.52;6.68;;;;;;;;;;5072631;28;20061;-77
2021/09/12 03:18:46;;;;;;;11.40;7.03;;;;;;;;;;5072534;28;20066;-78
2021/09/12 03:21:13;;;;;;;9.25;7.13;;;;;;;;;;5071730;28;20028;-78
2021/09/12 03:23:39;;;;;;;13.23;8.07;;;;;;;;;;5072405;28;20036;-77
2021/09/12 03:26:05;;;;;;;12.73;8.70;;;;;;;;;;5072125;28;20048;-77
2021/09/12 03:28:31;;;;;;;10.60;7.97;;;;;;;;;;5082286;28;20110;-77
2021/09/12 03:30:57;;;;;;;9.40;7.88;;;;;;;;;;5091648;28;20111;-77
2021/09/12 03:33:23;;;;;;;9.00;7.55;;;;;;;;;;5092060;28;20032;-78
2021/09/12 03:35:49;;;;;;;11.85;8.65;;;;;;;;;;5090651;28;20418;-77
2021/09/12 03:38:15;;;;;;;11.88;8.80;;;;;;;;;;5092713;28;20350;-77
2021/09/12 03:40:42;;;;;;;18.58;8.95;;;;;;;;;;5091756;28;20149;-77
2021/09/12 03:43:08;;;;;;;14.95;8.85;;;;;;;;;;5086200;28;20165;-78
2021/09/12 03:45:34;;;;;;;10.68;7.88;;;;;;;;;;5072006;28;20514;-78
2021/09/12 03:48:01;;;;;;;10.18;7.93;;;;;;;;;;5072081;28;20102;-77
2021/09/12 03:50:28;;;;;;;15.13;7.50;;;;;;;;;;5071095;28;20027;-78
2021/09/12 03:52:54;;;;;;;11.80;7.63;;;;;;;;;;5072389;28;20485;-77
2021/09/12 03:55:20;;;;;;;12.55;8.20;;;;;;;;;;5072045;28;20119;-77
2021/09/12 03:57:46;;;;;;;10.00;6.68;;;;;;;;;;5075590;28;20035;-78
2021/09/12 04:00:13;;;;;;;9.45;6.60;;;;;;;;;;5091698;28;20029;-76
2021/09/12 04:02:39;;;;;;;7.45;6.07;;;;;;;;;;5092011;28;20049;-77
2021/09/12 04:05:05;;;;;;;8.77;5.80;;;;;;;;;;5091764;28;20073;-77
2021/09/12 04:07:31;;;;;;;7.05;5.85;;;;;;;;;;5091155;28;20067;-77
2021/09/12 04:09:57;;;;;;;9.05;6.88;;;;;;;;;;5091200;28;20056;-77
2021/09/12 04:12:23;;;;;;;7.53;6.00;;;;;;;;;;5091805;28;20476;-77
2021/09/12 04:14:49;;;;;;;9.10;6.70;;;;;;;;;;5084709;28;20093;-76
2021/09/12 04:17:15;;;;;;;11.93;7.03;;;;;;;;;;5073247;28;20043;-76
2021/09/12 04:19:41;;;;;;;10.13;7.05;;;;;;;;;;5072266;28;20029;-76
2021/09/12 04:22:07;;;;;;;9.88;7.07;;;;;;;;;;5071887;28;20032;-76
2021/09/12 04:24:33;;;;;;;11.13;6.95;;;;;;;;;;5053531;28;20398;-77
2021/09/12 04:26:59;;;;;;;11.60;6.03;;;;;;;;;;5053482;28;20082;-78
2021/09/12 04:29:25;;;;;;;8.50;6.32;;;;;;;;;;5088731;28;20036;-79
2021/09/12 04:31:51;;;;;;;8.05;6.15;;;;;;;;;;5091761;28;20120;-78
2021/09/12 04:34:17;;;;;;;9.02;6.60;;;;;;;;;;5091548;28;20032;-77
2021/09/12 04:36:43;;;;;;;8.52;6.95;;;;;;;;;;5091312;28;20099;-76
2021/09/12 04:39:09;;;;;;;11.40;6.65;;;;;;;;;;5091226;28;20087;-76
2021/09/12 04:41:35;;;;;;;7.30;6.13;;;;;;;;;;5091676;28;20054;-76
2021/09/12 04:44:01;;;;;;;11.60;7.10;;;;;;;;;;5091519;28;20067;-76
2021/09/12 04:46:27;;;;;;;10.18;7.40;;;;;;;;;;5090003;28;20111;-76
2021/09/12 04:48:53;;;;;;;9.35;6.80;;;;;;;;;;5091081;28;20063;-82
2021/09/12 04:51:20;;;;;;;10.40;6.75;;;;;;;;;;5088564;28;20500;-76
2021/09/12 04:53:46;;;;;;;10.43;7.30;;;;;;;;;;5071275;28;20040;-76
2021/09/12 04:56:12;;;;;;;12.20;7.45;;;;;;;;;;5071195;28;20184;-76
2021/09/12 04:58:38;;;;;;;11.95;7.05;;;;;;;;;;5063818;28;20590;-76
2021/09/12 05:01:04;;;;;;;7.80;6.68;;;;;;;;;;5091019;28;20040;-77
2021/09/12 05:03:30;;;;;;;13.88;7.05;;;;;;;;;;5091427;28;20070;-76
2021/09/12 05:05:56;;;;;;;9.15;7.43;;;;;;;;;;5093644;28;20031;-76
2021/09/12 05:08:22;;;;;;;10.05;6.80;;;;;;;;;;5092565;28;20028;-76
2021/09/12 05:10:48;;;;;;;10.45;6.47;;;;;;;;;;5090990;28;20047;-76
2021/09/12 05:13:14;;;;;;;10.68;6.53;;;;;;;;;;5073395;28;20039;-76
2021/09/12 05:15:43;;;;;;;7.82;6.30;;;;;;;;;;5091390;28;20032;-76
2021/09/12 05:18:09;;;;;;;9.65;7.10;;;;;;;;;;5091033;28;20032;-76
2021/09/12 05:20:35;;;;;;;10.65;7.13;;;;;;;;;;5086285;28;20040;-77
2021/09/12 05:23:01;;;;;;;12.10;7.10;;;;;;;;;;5090688;28;20020;-76
2021/09/12 05:25:27;;;;;;;12.75;7.95;;;;;;;;;;5094402;28;20028;-77
2021/09/12 05:27:53;;;;;;;13.57;7.85;;;;;;;;;;5094406;28;20030;-77
2021/09/12 05:30:19;;;;;;;11.05;8.43;;;;;;;;;;5119408;22;20618;-80
2021/09/12 05:32:46;;;;;;;12.35;7.95;;;;;;;;;;5098337;28;20055;-81
2021/09/12 05:35:13;;;;;;;10.57;8.10;;;;;;;;;;5109684;28;20123;-82
2021/09/12 05:37:39;;;;;;;10.63;8.13;;;;;;;;;;5121027;28;20479;-82
2021/09/12 05:40:06;;;;;;;13.57;7.63;;;;;;;;;;5122968;27;20047;-82
2021/09/12 05:42:32;;;;;;;11.23;7.68;;;;;;;;;;5122487;27;20019;-81
2021/09/12 05:44:58;;;;;;;11.18;7.35;;;;;;;;;;5123262;27;20030;-81
2021/09/12 05:47:24;;;;;;;10.63;7.50;;;;;;;;;;5103935;27;20093;-81
2021/09/12 05:49:49;;;;;;;9.10;7.45;;;;;;;;;;5121288;27;20028;-82
2021/09/12 05:52:15;;;;;;;12.85;7.65;;;;;;;;;;5103150;28;20062;-82
2021/09/12 05:54:41;;;;;;;9.50;7.72;;;;;;;;;;5120830;28;20049;-82
2021/09/12 05:57:07;;;;;;;10.98;7.28;;;;;;;;;;5120194;28;20023;-83
2021/09/12 05:59:34;;;;;;;7.75;6.95;;;;;;;;;;5137649;27;20020;-83
2021/09/12 06:02:00;;;;;;;10.85;7.07;;;;;;;;;;5123319;27;20035;-83
2021/09/12 06:04:25;;;;;;;8.90;6.90;;;;;;;;;;5122388;27;20031;-83
2021/09/12 06:06:52;;;;;;;12.70;7.22;;;;;;;;;;5140662;27;20455;-82
2021/09/12 06:09:18;;;;;;;12.15;7.00;;;;;;;;;;5121995;27;20111;-83
2021/09/12 06:11:44;;;;;;;10.75;7.47;;;;;;;;;;5121668;27;20443;-83
2021/09/12 06:14:10;;;;;;;11.13;7.93;;;;;;;;;;5140758;27;20026;-83
2021/09/12 06:16:36;;;;;;;9.45;6.75;;;;;;;;;;5140160;27;20031;-83
2021/09/12 06:19:02;;;;;;;9.82;7.35;;;;;;;;;;5121213;27;20486;-83
2021/09/12 06:21:28;;;;;;;10.15;7.45;;;;;;;;;;5126448;27;20020;-79
2021/09/12 06:23:54;;;;;;;9.38;6.72;;;;;;;;;;5113172;28;20032;-85
2021/09/12 06:26:20;;;;;;;9.43;7.32;;;;;;;;;;5108376;28;20453;-81
2021/09/12 06:28:46;;;;;;;8.95;6.80;;;;;;;;;;5122884;27;20047;-82
2021/09/12 06:31:12;;;;;;;7.95;6.45;;;;;;;;;;5117173;27;20031;-81
2021/09/12 06:33:39;;;;;;;8.73;7.00;;;;;;;;;;5100750;27;20383;-81
2021/09/12 06:36:05;;;;;;;12.00;7.13;;;;;;;;;;5117181;27;20046;-81
2021/09/12 06:38:32;;;;;;;8.73;7.18;;;;;;;;;;5117760;27;20023;-80
2021/09/12 06:40:58;;;;;;;7.22;6.03;;;;;;;;;;5135329;27;20074;-82
2021/09/12 06:43:24;;;;;;;6.88;5.93;;;;;;;;;;5136760;27;20379;-81
2021/09/12 06:45:50;;;;;;;8.63;5.57;;;;;;;;;;5118365;27;20023;-81
2021/09/12 06:48:16;;;;;;;7.75;5.63;;;;;;;;;;5138512;27;20023;-82
2021/09/12 06:50:42;;;;;;;8.05;5.13;;;;;;;;;;5105483;27;20031;-82
2021/09/12 06:53:08;;;;;;;6.32;4.63;;;;;;;;;;5123108;27;20586;-81
2021/09/12 06:55:34;;;;;;;6.50;4.50;;;;;;;;;;5139371;27;20047;-82
2021/09/12 06:58:00;;;;;;;5.60;4.28;;;;;;;;;;5120881;27;20034;-81
2021/09/12 07:00:26;;;;;;;4.15;3.72;;;;;;;;;;5103552;27;20030;-82
2021/09/12 07:02:52;;;;;;;5.28;3.72;;;;;;;;;;5121788;27;20046;-81
2021/09/12 07:05:18;;;;;;;6.25;4.00;;;;;;;;;;5140662;27;20475;-80
2021/09/12 07:07:44;;;;;;;7.38;4.25;;;;;;;;;;5139574;27;20042;-81
2021/09/12 07:10:10;;;;;;;8.07;4.13;;;;;;;;;;5147964;27;20034;-80
2021/09/12 07:12:36;;;;;;;5.15;3.35;;;;;;;;;;5128804;27;20472;-80
2021/09/12 07:15:03;;;;;;;6.68;3.50;;;;;;;;;;5142888;27;20031;-80
2021/09/12 07:17:29;;;;;;;6.40;3.80;;;;;;;;;;5129963;27;20031;-82
2021/09/12 07:19:55;;;;;;;5.00;3.50;;;;;;;;;;5119610;27;20031;-82
2021/09/12 07:22:21;;;;;;;8.27;3.13;;;;;;;;;;5119461;27;20023;-82
2021/09/12 07:24:47;;;;;;;4.70;3.30;;;;;;;;;;5120782;27;20079;-82
2021/09/12 07:27:13;;;;;;;6.68;3.25;;;;;;;;;;5121225;27;20430;-81
2021/09/12 07:29:39;;;;;;;4.15;3.03;;;;;;;;;;5120410;28;20039;-82
2021/09/12 07:32:05;;;;;;;3.58;2.35;;;;;;;;;;5098371;28;20443;-82
2021/09/12 07:34:31;;;;;;;2.35;2.15;;;;;;;;;;5098914;28;20028;-82
2021/09/12 07:36:57;;;;;;;6.18;2.50;;;;;;;;;;5099877;28;20391;-82
2021/09/12 07:39:23;;;;;;;4.80;3.00;;;;;;;;;;5116469;28;20031;-82
2021/09/12 07:41:49;;;;;;;6.32;2.70;;;;;;;;;;5099224;28;20088;-82
2021/09/12 07:44:15;;;;;;;3.45;2.70;;;;;;;;;;5097894;28;20028;-82
2021/09/12 07:46:41;;;;;;;4.47;2.65;;;;;;;;;;5097616;28;20399;-81
2021/09/12 07:49:07;;;;;;;4.00;2.67;;;;;;;;;;5109988;28;20028;-82
2021/09/12 07:51:33;;;;;;;3.95;2.55;;;;;;;;;;5115630;28;20031;-83
2021/09/12 07:53:59;;;;;;;2.85;2.20;;;;;;;;;;5097579;28;20028;-82
2021/09/12 07:56:25;;;;;;;2.75;2.28;;;;;;;;;;5097374;28;20042;-81
2021/09/12 07:58:51;;;;;;;3.08;2.40;;;;;;;;;;5110330;28;20043;-81
2021/09/12 08:01:16;;;;;;;6.68;2.20;;;;;;;;;;5136202;28;20391;-82
2021/09/12 08:03:43;;;;;;;5.38;2.10;;;;;;;;;;5101753;28;20035;-81
2021/09/12 08:06:09;;;;;;;5.35;2.30;;;;;;;;;;5139672;28;20019;-81
2021/09/12 08:08:35;;;;;;;4.07;2.00;;;;;;;;;;5109488;28;20118;-81
2021/09/12 08:11:01;;;;;;;4.07;2.13;;;;;;;;;;5145304;28;20514;-81
2021/09/12 08:13:27;;;;;;;2.65;2.10;;;;;;;;;;5146336;28;20121;-80
2021/09/12 08:15:53;;;;;;;3.13;2.05;;;;;;;;;;5127030;28;20060;-83
2021/09/12 08:18:19;;;;;;;2.80;1.90;;;;;;;;;;5119681;28;20067;-82
2021/09/12 08:20:46;;;;;;;4.13;2.00;;;;;;;;;;5118516;28;20065;-83
2021/09/12 08:23:12;;;;;;;2.92;1.85;;;;;;;;;;5119948;28;20033;-83
2021/09/12 08:25:38;;;;;;;3.42;1.98;;;;;;;;;;5119468;28;20023;-83
2021/09/12 08:28:04;;;;;;;4.10;2.05;;;;;;;;;;5123749;28;20117;-83
2021/09/12 08:30:30;;;;;;;4.65;2.00;;;;;;;;;;5098722;27;1077246;-83
2021/09/12 08:32:56;;;;;;;4.45;1.65;;;;;;;;;;5119694;28;20034;-83
2021/09/12 08:35:22;;;;;;;2.15;1.67;;;;;;;;;;5119817;28;20046;-83
2021/09/12 08:37:48;;;;;;;2.53;1.55;;;;;;;;;;5121099;28;20030;-83
2021/09/12 08:40:15;;;;;;;2.30;1.55;;;;;;;;;;5103603;28;20048;-83
2021/09/12 08:42:44;;;;;;;2.65;1.52;;;;;;;;;;5120218;28;20468;-83
2021/09/12 08:45:10;;;;;;;2.35;1.70;;;;;;;;;;5119990;28;20130;-83
2021/09/12 08:47:36;;;;;;;3.55;1.67;;;;;;;;;;5120458;28;20125;-82
2021/09/12 08:50:03;;;;;;;1.88;1.50;;;;;;;;;;5120618;28;20037;-83
2021/09/12 08:52:29;;;;;;;4.65;1.67;;;;;;;;;;5121059;28;20387;-83
2021/09/12 08:54:55;;;;;;;2.58;1.40;;;;;;;;;;5123003;27;20027;-83
2021/09/12 08:57:21;;;;;;;3.20;1.90;;;;;;;;;;5127120;27;20031;-83
2021/09/12 08:59:50;;;;;;;4.53;1.80;;;;;;;;;;5146222;27;20027;-83
2021/09/12 09:02:17;;;;;;;2.17;1.80;;;;;;;;;;5135458;27;20034;-81
2021/09/12 09:04:43;;;;;;;9.48;1.92;;;;;;;;;;5136453;27;20506;-83
2021/09/12 09:07:10;;;;;;;3.65;1.63;;;;;;;;;;5117772;27;20023;-83
2021/09/12 09:09:46;;;;;;;2.33;1.63;;;;;;;;;;5127168;27;20066;-83
2021/09/12 09:12:31;;;;;;;4.18;1.50;;;;;;;;;;5126212;27;20027;-83
2021/09/12 09:15:01;;;;;;;2.20;1.50;;;;;;;;;;5126916;27;20035;-83
2021/09/12 09:17:27;;;;;;;3.60;1.67;;;;;;;;;;5149981;27;20019;-81
2021/09/12 09:19:54;;;;;;;2.72;1.60;;;;;;;;;;5131070;27;20122;-83
2021/09/12 09:22:31;;;;;;;2.03;1.23;;;;;;;;;;5133072;27;20084;-81
2021/09/12 09:25:06;;;;;;;2.22;1.10;;;;;;;;;;5131593;27;20103;-83
2021/09/12 09:27:50;;;;;;;1.52;1.10;;;;;;;;;;5126714;27;20027;-81
2021/09/12 09:30:16;;;;;;;2.08;1.10;;;;;;;;;;5144735;27;20035;-84
2021/09/12 09:32:42;;;;;;;2.05;1.00;;;;;;;;;;5144158;27;20031;-84
2021/09/12 09:35:08;;;;;;;2.75;1.25;;;;;;;;;;5126901;27;20394;-84
2021/09/12 09:37:34;;;;;;;1.50;0.90;;;;;;;;;;5144431;27;20031;-84
2021/09/12 09:40:00;;;;;;;2.42;1.30;;;;;;;;;;5144068;27;20023;-84
2021/09/12 09:42:34;;;;;;;3.85;1.48;;;;;;;;;;5105885;28;20020;-84
2021/09/12 09:45:27;;;;;;;2.33;1.20;;;23.10;99.90;;;;;;5105920;27;20549;-84
2021/09/12 09:47:52;;;;;;;1.70;0.98;;;29.00;87.80;;;;;;5139978;27;20043;-83
2021/09/12 09:50:18;;;;;;;4.18;1.10;;;;;;;;;;5125722;27;20034;-82
2021/09/12 09:52:46;;;;;;;4.25;1.10;;;;;;;;;;5125362;27;20023;-82
2021/09/12 09:55:15;;;;;;;2.15;0.80;;;;;;;;;;5125548;27;20023;-83
2021/09/12 09:57:42;;;;;;;1.70;0.90;;;;;;;;;;5125367;27;20072;-82
2021/09/12 10:00:08;;;;;;;2.90;1.00;;;28.90;84.60;;;;;;5143114;27;20015;-81
2021/09/12 10:02:34;;;;;;;3.45;1.50;;;30.90;69.30;;;;;;5125511;27;20019;-81
2021/09/12 10:05:03;;;;;;;3.35;1.13;;;30.20;68.00;;;;;;5143231;27;20015;-82
2021/09/12 10:07:29;;;;;;;0.90;0.70;;;29.60;67.60;;;;;;5107520;27;20027;-82
2021/09/12 10:09:55;;;;;;;3.17;1.10;;;;;;;;;;5088113;28;20493;-83
2021/09/12 10:12:22;;;;;;;2.05;0.82;;;;;;;;;;5089066;28;20045;-81
2021/09/12 10:14:50;;;;;;;2.78;0.73;;;;;;;;;;5126986;27;20034;-82
2021/09/12 10:17:21;;;;;;;3.25;1.08;;;;;;;;;;5126383;27;20026;-81
2021/09/12 10:19:47;;;;;;;2.33;1.40;;;;;;;;;;5125482;27;20019;-82
2021/09/12 10:22:19;;;;;;;0.88;0.70;;;;;;;;;;5125513;27;20433;-81
2021/09/12 10:25:01;;;;;;;1.52;0.80;;;;;;;;;;5145299;27;20028;-82
2021/09/12 10:27:43;;;;;;;2.40;1.00;;;;;;;;;;5139524;27;20030;-81
2021/09/12 10:30:29;;;;;;;2.60;0.90;;;;;;;;;;5119173;28;20063;-82
2021/09/12 10:33:07;;;;;;;2.45;0.70;;;;;;;;;;5120420;28;20027;-82
2021/09/12 10:35:38;;;;;;;3.38;0.80;;;;;;;;;;5102262;28;20547;-82
2021/09/12 10:38:14;;;;;;;2.10;1.00;;;;;;;;;;5120829;28;20034;-82
2021/09/12 10:40:49;;;;;;;1.65;1.00;;;;;;;;;;5100626;28;20073;-83
2021/09/12 10:43:27;;;;;;;1.15;0.90;;;;;;;;;;5131160;27;20096;-82
2021/09/12 10:46:02;;;;;;;1.35;0.80;;;;;;;;;;5123669;27;20027;-82
2021/09/12 10:48:30;;;;;;;1.92;1.27;;;;;;;;;;5140959;27;20391;-83
2021/09/12 10:50:56;;;;;;;1.45;1.00;;;;;;;;;;5121026;27;20065;-83
2021/09/12 10:53:41;;;;;;;3.28;0.88;;;;;;;;;;5121792;27;20031;-83
2021/09/12 10:56:06;;;;;;;2.35;0.90;;;;;;;;;;5140124;27;20034;-83
2021/09/12 10:58:33;;;;;;;1.85;1.33;;;;;;;;;;5113683;28;20053;-81
2021/09/12 11:01:00;;;;;;;2.03;0.80;;;;;;;;;;5124764;27;20502;-82
2021/09/12 11:03:27;;;;;;;2.47;1.00;;;;;;;;;;5138203;27;20019;-82
2021/09/12 11:05:53;;;;;;;1.10;1.00;;;;;;;;;;5141464;27;20055;-83
2021/09/12 11:08:19;;;;;;;1.13;0.70;;;;;;;;;;5129659;27;20019;-82
2021/09/12 11:10:47;;;;;;;3.15;1.58;;;;;;;;;;5147621;27;20030;-80
2021/09/12 11:13:23;;;;;;;1.55;0.70;;;;;;;;;;5149824;27;20027;-80
2021/09/12 11:15:49;;;;;;;0.90;0.80;;;;;;;;;;5149250;27;20015;-82
2021/09/12 11:18:15;;;;;;;3.33;1.02;;;;;;;;;;5115337;27;20027;-83
2021/09/12 11:20:42;;;;;;;1.08;0.90;;;;;;;;;;5123661;27;20057;-81
2021/09/12 11:23:09;;;;;;;2.40;1.10;;;;;;;;;;5139216;27;20031;-81
2021/09/12 11:25:35;;;;;;;1.38;1.00;;;;;;;;;;5138201;27;20022;-83
2021/09/12 11:28:08;;;;;;;2.08;0.90;;;;;;;;;;5119724;28;20023;-81
2021/09/12 11:30:35;;;;;;;3.25;1.20;;;;;;;;;;5099581;28;20043;-83
2021/09/12 11:33:04;;;;;;;2.03;0.90;;;;;;;;;;5122309;27;20117;-82
2021/09/12 11:35:30;;;;;;;2.20;0.82;;;;;;;;;;5139453;27;20071;-80
2021/09/12 11:38:03;;;;;;;1.95;1.02;;;;;;;;;;5132435;27;20042;-79
2021/09/12 11:40:29;;;;;;;1.25;0.75;;;;;;;;;;5156507;27;20031;-80
2021/09/12 11:43:09;;;;;;;1.45;0.90;;;;;;;;;;5137176;27;20035;-81
2021/09/12 11:45:35;;;;;;;1.20;0.90;;;;;;;;;;5133256;27;20038;-82
2021/09/12 11:48:01;;;;;;;1.25;1.00;;;;;;;;;;5117288;27;20023;-81
2021/09/12 11:50:27;;;;;;;1.88;1.13;;;;;;;;;;5117831;28;20042;-79
2021/09/12 11:52:53;;;;;;;2.42;0.90;;;;;;;;;;5118156;27;20019;-79
2021/09/12 11:55:24;;;;;;;1.58;1.00;;;;;;;;;;5099797;27;20168;-80
2021/09/12 11:58:00;;;;;;;0.70;0.70;;;;;;;;;;5141688;22;20051;-82
2021/09/12 12:00:27;;;;;;;2.10;0.80;;;;;;;;;;5119105;28;20028;-82
2021/09/12 12:02:53;;;;;;;2.47;1.15;;;;;;;;;;5118853;28;20027;-83
2021/09/12 12:05:19;;;;;;;2.60;1.30;;;;;;;;;;5118207;28;20475;-82
2021/09/12 12:07:46;;;;;;;2.83;0.90;;;;;;;;;;5081644;28;20024;-83
2021/09/12 12:10:29;;;;;;;3.47;1.00;;;;;;;;;;5096155;28;20032;-83
2021/09/12 12:12:55;;;;;;;1.58;1.00;;;;;;;;;;5098526;28;20020;-84
2021/09/12 12:15:30;;;;;;;3.80;1.02;;;;;;;;;;5096889;28;20043;-83
2021/09/12 12:17:56;;;;;;;1.55;0.90;;;;;;;;;;5099897;28;20412;-83
2021/09/12 12:20:22;;;;;;;2.83;1.00;;;;;;;;;;5106811;28;20032;-82
2021/09/12 12:22:48;;;;;;;1.40;1.02;;;;;;;;;;5075223;28;20035;-83
2021/09/12 12:25:26;;;;;;;1.38;0.90;;;;;;;;;;5089275;28;20488;-83
2021/09/12 12:27:52;;;;;;;1.80;1.00;;;;;;;;;;5079689;28;20024;-83
2021/09/12 12:30:18;;;;;;;2.55;0.98;;;;;;;;;;5103435;28;20016;-82
2021/09/12 12:32:45;;;;;;;1.95;1.17;;;;;;;;;;5107208;28;20045;-83
2021/09/12 12:35:15;;;;;;;2.50;1.10;;;;;;;;;;5108337;28;20032;-84
2021/09/12 12:37:45;;;;;;;1.52;0.90;;;;;;;;;;5108339;28;20020;-83
2021/09/12 12:40:22;;;;;;;2.30;1.10;;;;;;;;;;5105593;28;20020;-82
2021/09/12 12:42:49;;;;;;;2.75;0.90;;;;;;;;;;5090294;28;20020;-83
2021/09/12 12:45:18;;;;;;;2.40;1.00;;;;;;;;;;5106854;28;20034;-83
2021/09/12 12:47:44;;;;;;;2.17;1.13;;;;;;;;;;5106762;28;20589;-83
2021/09/12 12:50:10;;;;;;;2.42;1.00;;;;;;;;;;5106666;28;20551;-83
2021/09/12 12:52:36;;;;;;;1.77;0.90;;;;;;;;;;5106176;28;20043;-83
2021/09/12 12:55:05;;;;;;;2.85;1.17;;;;;;;;;;5090243;28;20028;-83
2021/09/12 12:57:32;;;;;;;1.52;1.08;;;;;;;;;;5109862;28;20024;-83
2021/09/12 12:59:58;;;;;;;1.27;0.90;;;;;;;;;;5089782;28;20016;-82
2021/09/12 13:02:24;;;;;;;3.25;1.10;;;;;;;;;;5108530;28;20016;-83
2021/09/12 13:04:50;;;;;;;3.33;0.95;;;;;;;;;;5107236;28;20032;-82
2021/09/12 13:07:16;;;;;;;1.95;0.90;;;;;;;;;;5106252;28;20039;-83
2021/09/12 13:09:42;;;;;;;2.92;1.10;;;;;;;;;;5089159;28;20036;-83
2021/09/12 13:12:09;;;;;;;1.17;0.98;;;;;;;;;;5110266;28;20024;-83
2021/09/12 13:14:36;;;;;;;1.92;1.00;;;;;;;;;;5109828;28;20043;-83
2021/09/12 13:17:02;;;;;;;1.70;0.90;;;;;;;;;;5108227;28;20020;-82
2021/09/12 13:19:28;;;;;;;1.45;0.90;;;;;;;;;;5090046;28;20038;-83
2021/09/12 13:21:54;;;;;;;3.25;0.90;;;;;;;;;;5106025;28;20105;-83
2021/09/12 13:24:20;;;;;;;2.28;1.00;;;;;;;;;;5101959;28;20051;-83
2021/09/12 13:26:46;;;;;;;2.00;1.00;;;;;;;;;;5103557;28;20039;-83
2021/09/12 13:29:12;;;;;;;1.02;0.85;;;;;;;;;;5091071;28;20028;-83
2021/09/12 13:31:41;;;;;;;1.52;1.10;;;;;;;;;;5068850;28;20460;-83
2021/09/12 13:34:07;;;;;;;4.43;1.00;;;;;;;;;;5086668;28;20028;-83
2021/09/12 13:36:33;;;;;;;1.23;0.80;;;;;;;;;;5084962;28;20055;-83
2021/09/12 13:38:59;;;;;;;3.17;1.02;;;;;;;;;;5096037;28;20028;-83
2021/09/12 13:41:25;;;;;;;1.00;0.90;;;;;;;;;;5087895;28;20035;-84
2021/09/12 13:43:51;;;;;;;0.93;0.80;;;;;;;;;;5107263;28;20544;-83
2021/09/12 13:46:17;;;;;;;2.83;1.00;;;;;;;;;;5086754;28;20028;-83
2021/09/12 13:48:43;;;;;;;1.33;0.90;;;;;;;;;;5085721;28;20028;-83
2021/09/12 13:51:09;;;;;;;1.98;0.98;;;;;;;;;;5101782;28;20381;-83
2021/09/12 13:53:35;;;;;;;2.72;1.10;;;;;;;;;;5082439;28;20032;-83
2021/09/12 13:56:01;;;;;;;1.80;0.82;;;;;;;;;;5103867;28;20036;-83
2021/09/12 13:58:27;;;;;;;1.45;1.00;;;;;;;;;;5103673;28;20028;-84
2021/09/12 14:00:53;;;;;;;1.20;1.00;;;;;;;;;;5088184;28;20077;-83
2021/09/12 14:03:19;;;;;;;1.50;0.93;;;;;;;;;;5110957;28;20495;-84
2021/09/12 14:05:45;;;;;;;1.10;0.80;;;;;;;;;;5092377;28;20028;-84
2021/09/12 14:08:11;;;;;;;2.58;1.00;;;;;;;;;;5089142;28;20020;-83
2021/09/12 14:10:37;;;;;;;2.33;0.75;;;;;;;;;;5109141;28;20024;-84
2021/09/12 14:13:04;;;;;;;1.27;1.00;;;;;;;;;;5111506;28;20032;-84
2021/09/12 14:15:30;;;;;;;2.58;1.05;;;;;;;;;;5072220;28;20037;-84
2021/09/12 14:17:56;;;;;;;1.58;0.80;;;;;;;;;;5089821;28;20039;-84
2021/09/12 14:20:22;;;;;;;1.40;0.93;;;;;;;;;;5088765;28;20029;-84
2021/09/12 14:22:48;;;;;;;1.60;0.90;;;;;;;;;;5084168;28;20400;-84
2021/09/12 14:25:14;;;;;;;1.98;1.05;;;;;;;;;;5070617;28;20029;-84
2021/09/12 14:27:41;;;;;;;1.30;0.90;;;;;;;;;;5072769;28;20032;-84
2021/09/12 14:30:07;;;;;;;3.10;1.15;;;;;;;;;;5107755;28;20091;-84
2021/09/12 14:32:33;;;;;;;1.83;0.90;;;;;;;;;;5091432;28;20404;-84
2021/09/12 14:34:59;;;;;;;1.33;0.98;;;;;;;;;;5107716;28;20399;-84
2021/09/12 14:37:25;;;;;;;1.27;1.13;;;;;;;;;;5107725;28;20027;-84